Dornsife, PA (17823)

05:35 AM EDT del 22 Ottobre 2014 (GMT -0400)
TONY | Change Station
CLOSE
Current Station
Stazione meteo personale
Location: Trevorton, PA
Altitudine: 820 ft
Stazioni meteo nelle vicinanze

Alt. 820 ft 40.78 °N, 76.68 °W | Updated 2 minutes ago

Coperto
Coperto
52.4 °F
Sembra 52.4 °F
N
0.0
Vento Variabile Vento da NNO
Gusts 4.0 mph

Oggi
Massima -- | Minima -- °F
--% Possibilità di precip.
Ieri
Massima -- | Minima -- °F
Precip. -- in
7:25 AM 6:16 PM
Luna calante, 2% visible
Pressione 29.95 in
Visibilità 10.0 miglia
Nuvole Coperto 3000 ft
Punto di rugiada 49 °F
Umidità 88%
Piovosità 0.00 in
Spessore del manto nevoso Non disponibile.
Raggi UV 0 fuori da 12
Polline .30 fuori da 12
Qualità dell'aria Non disponibile.
Flu Activity Sporadic
METAR KSEG 220853Z AUTO 36010G15KT 10SM OVC030 12/08 A2995 RMK AO2 SLP141 T01220083 53003

More Conditions Fewer Conditions

Pressione 29.95 in
Visibilità 10.0 miglia
Nuvole Coperto 3000 ft
Punto di rugiada 49 °F
Umidità 88%
Piovosità 0.00 in
Spessore del manto nevoso Non disponibile.
Raggi UV 0 fuori da 12
Polline .30 fuori da 12
Qualità dell'aria Non disponibile.
Flu Activity Sporadic
METAR KSEG 220853Z AUTO 36010G15KT 10SM OVC030 12/08 A2995 RMK AO2 SLP141 T01220083 53003

More Conditions Fewer Conditions

10-Day Weather Forecast

Almanac

Astronomia

Oct. 22, 2014 Alba Tramonto
Ora attuale 07:25 EDT 18:16 EDT
Crepuscolo civile 06:58 EDT 18:44 EDT
Crepuscolo nautico 06:26 EDT 19:16 EDT
Crepuscolo astronomico 05:54 EDT 19:47 EDT
Luna 06:04 EDT 17:42 EDT
Estensione della luce visibile 11h 46m
Lunghezza del giorno
10h 50m
Tomorrow will be 2m 32s shorter.
Luna calante, 2% of the Moon is Illuminated
Oggi
Luna calante
Ott 23
Nuovo
Ott 30
Primo quarto
Nov 6
Luna piena
Nov 14
Ultimo quarto

Gli estremi di oggi

State Highs State Lows

Community

WunderPhotos

Upload Photos

1,763,900 foto caricate!

Nearby

Profondità neve

Stazione Profondità Altitudine
Non sono state evidenziate nuove nevicate

Attività sismica

Città  Distanza Mag. Data & Ora
Non sono state riportate attività sismiche nelle vicinanze.
Minimo Magnitudo Mostrato è 2.5.

Temperature delle acque costiere

Località Temperatura
Nessun dato dalle stazioni

Stazioni meteo nelle vicinanze